sensor_id;sensor_type;location;lat;lon;timestamp;P1;durP1;ratioP1;P2;durP2;ratioP2
2299;SDS011;1158;48.750;9.078;2022-07-29T00:01:22;9.40;;;7.77;;
2299;SDS011;1158;48.750;9.078;2022-07-29T00:03:48;10.73;;;8.20;;
2299;SDS011;1158;48.750;9.078;2022-07-29T00:06:15;10.13;;;9.07;;
2299;SDS011;1158;48.750;9.078;2022-07-29T00:08:42;8.93;;;7.87;;
2299;SDS011;1158;48.750;9.078;2022-07-29T00:11:08;9.03;;;7.63;;
2299;SDS011;1158;48.750;9.078;2022-07-29T00:13:35;9.57;;;8.43;;
2299;SDS011;1158;48.750;9.078;2022-07-29T00:16:03;8.93;;;8.07;;
2299;SDS011;1158;48.750;9.078;2022-07-29T00:18:30;8.00;;;7.20;;
2299;SDS011;1158;48.750;9.078;2022-07-29T00:20:57;9.37;;;8.40;;
2299;SDS011;1158;48.750;9.078;2022-07-29T00:23:24;9.43;;;8.47;;
2299;SDS011;1158;48.750;9.078;2022-07-29T00:25:51;9.97;;;8.50;;
2299;SDS011;1158;48.750;9.078;2022-07-29T00:28:17;8.50;;;7.70;;
2299;SDS011;1158;48.750;9.078;2022-07-29T00:30:44;8.30;;;7.37;;
2299;SDS011;1158;48.750;9.078;2022-07-29T00:33:12;8.60;;;7.70;;
2299;SDS011;1158;48.750;9.078;2022-07-29T00:35:39;13.73;;;8.27;;
2299;SDS011;1158;48.750;9.078;2022-07-29T00:38:11;9.53;;;8.53;;
2299;SDS011;1158;48.750;9.078;2022-07-29T00:40:38;10.37;;;8.73;;
2299;SDS011;1158;48.750;9.078;2022-07-29T00:43:05;8.23;;;7.43;;
2299;SDS011;1158;48.750;9.078;2022-07-29T00:45:32;10.40;;;8.17;;
2299;SDS011;1158;48.750;9.078;2022-07-29T00:47:59;8.70;;;7.90;;
2299;SDS011;1158;48.750;9.078;2022-07-29T00:50:27;9.80;;;7.47;;
2299;SDS011;1158;48.750;9.078;2022-07-29T00:52:53;8.80;;;7.70;;
2299;SDS011;1158;48.750;9.078;2022-07-29T00:55:20;9.23;;;7.50;;
2299;SDS011;1158;48.750;9.078;2022-07-29T00:57:47;8.87;;;7.47;;
2299;SDS011;1158;48.750;9.078;2022-07-29T01:00:16;12.37;;;7.80;;
2299;SDS011;1158;48.750;9.078;2022-07-29T01:02:45;10.60;;;7.60;;
2299;SDS011;1158;48.750;9.078;2022-07-29T01:05:13;9.37;;;7.87;;
2299;SDS011;1158;48.750;9.078;2022-07-29T01:07:43;9.20;;;8.20;;
2299;SDS011;1158;48.750;9.078;2022-07-29T01:10:13;8.83;;;8.00;;
2299;SDS011;1158;48.750;9.078;2022-07-29T01:12:40;7.97;;;7.10;;
2299;SDS011;1158;48.750;9.078;2022-07-29T01:15:10;8.23;;;7.43;;
2299;SDS011;1158;48.750;9.078;2022-07-29T01:17:39;9.63;;;7.70;;
2299;SDS011;1158;48.750;9.078;2022-07-29T01:20:12;9.50;;;7.77;;
2299;SDS011;1158;48.750;9.078;2022-07-29T01:29:03;8.30;;;7.50;;
2299;SDS011;1158;48.750;9.078;2022-07-29T01:31:39;8.43;;;7.03;;
2299;SDS011;1158;48.750;9.078;2022-07-29T01:34:11;7.73;;;6.87;;
2299;SDS011;1158;48.750;9.078;2022-07-29T01:36:45;8.00;;;6.70;;
2299;SDS011;1158;48.750;9.078;2022-07-29T01:39:17;6.97;;;6.27;;
2299;SDS011;1158;48.750;9.078;2022-07-29T01:41:48;7.57;;;6.70;;
2299;SDS011;1158;48.750;9.078;2022-07-29T01:44:22;9.13;;;6.83;;
2299;SDS011;1158;48.750;9.078;2022-07-29T01:46:54;8.70;;;7.40;;
2299;SDS011;1158;48.750;9.078;2022-07-29T01:49:25;8.10;;;7.13;;
2299;SDS011;1158;48.750;9.078;2022-07-29T01:52:02;7.20;;;6.47;;
2299;SDS011;1158;48.750;9.078;2022-07-29T01:54:32;9.77;;;7.60;;
2299;SDS011;1158;48.750;9.078;2022-07-29T01:57:03;8.10;;;7.30;;
2299;SDS011;1158;48.750;9.078;2022-07-29T01:59:34;8.63;;;7.83;;
2299;SDS011;1158;48.750;9.078;2022-07-29T02:02:03;8.53;;;6.80;;
2299;SDS011;1158;48.750;9.078;2022-07-29T02:04:33;7.53;;;6.73;;
2299;SDS011;1158;48.750;9.078;2022-07-29T02:07:02;8.90;;;7.67;;
2299;SDS011;1158;48.750;9.078;2022-07-29T02:09:32;9.23;;;6.70;;
2299;SDS011;1158;48.750;9.078;2022-07-29T02:12:02;8.20;;;6.33;;
2299;SDS011;1158;48.750;9.078;2022-07-29T02:14:31;7.23;;;6.53;;
2299;SDS011;1158;48.750;9.078;2022-07-29T02:17:02;8.80;;;7.20;;
2299;SDS011;1158;48.750;9.078;2022-07-29T02:19:29;7.40;;;6.60;;
2299;SDS011;1158;48.750;9.078;2022-07-29T02:21:58;7.97;;;6.70;;
2299;SDS011;1158;48.750;9.078;2022-07-29T02:24:26;7.13;;;6.43;;
2299;SDS011;1158;48.750;9.078;2022-07-29T02:26:55;6.97;;;6.27;;
2299;SDS011;1158;48.750;9.078;2022-07-29T02:29:25;8.30;;;7.00;;
2299;SDS011;1158;48.750;9.078;2022-07-29T02:31:55;7.97;;;7.17;;
2299;SDS011;1158;48.750;9.078;2022-07-29T02:34:23;7.63;;;6.50;;
2299;SDS011;1158;48.750;9.078;2022-07-29T02:36:51;8.63;;;7.13;;
2299;SDS011;1158;48.750;9.078;2022-07-29T02:39:20;7.47;;;6.40;;
2299;SDS011;1158;48.750;9.078;2022-07-29T02:41:50;7.07;;;6.07;;
2299;SDS011;1158;48.750;9.078;2022-07-29T02:44:19;9.90;;;6.37;;
2299;SDS011;1158;48.750;9.078;2022-07-29T02:46:50;8.77;;;7.47;;
2299;SDS011;1158;48.750;9.078;2022-07-29T02:49:24;9.20;;;7.30;;
2299;SDS011;1158;48.750;9.078;2022-07-29T02:52:00;6.93;;;6.23;;
2299;SDS011;1158;48.750;9.078;2022-07-29T02:54:31;9.90;;;7.27;;
2299;SDS011;1158;48.750;9.078;2022-07-29T02:57:05;7.80;;;6.40;;
2299;SDS011;1158;48.750;9.078;2022-07-29T02:59:36;8.60;;;7.57;;
2299;SDS011;1158;48.750;9.078;2022-07-29T03:02:08;8.50;;;7.10;;
2299;SDS011;1158;48.750;9.078;2022-07-29T03:04:38;7.87;;;7.00;;
2299;SDS011;1158;48.750;9.078;2022-07-29T03:07:08;7.60;;;6.90;;
2299;SDS011;1158;48.750;9.078;2022-07-29T03:09:36;8.70;;;6.57;;
2299;SDS011;1158;48.750;9.078;2022-07-29T03:12:04;7.53;;;6.83;;
2299;SDS011;1158;48.750;9.078;2022-07-29T03:14:32;7.80;;;6.93;;
2299;SDS011;1158;48.750;9.078;2022-07-29T03:16:59;8.00;;;7.03;;
2299;SDS011;1158;48.750;9.078;2022-07-29T03:19:26;9.17;;;7.57;;
2299;SDS011;1158;48.750;9.078;2022-07-29T03:21:56;7.23;;;6.53;;
2299;SDS011;1158;48.750;9.078;2022-07-29T03:24:24;8.40;;;6.20;;
2299;SDS011;1158;48.750;9.078;2022-07-29T03:26:52;7.53;;;6.73;;
2299;SDS011;1158;48.750;9.078;2022-07-29T03:29:18;7.43;;;6.63;;
2299;SDS011;1158;48.750;9.078;2022-07-29T03:31:45;8.07;;;7.27;;
2299;SDS011;1158;48.750;9.078;2022-07-29T03:34:12;7.90;;;7.10;;
2299;SDS011;1158;48.750;9.078;2022-07-29T03:36:39;7.67;;;6.97;;
2299;SDS011;1158;48.750;9.078;2022-07-29T03:39:07;9.27;;;7.93;;
2299;SDS011;1158;48.750;9.078;2022-07-29T03:41:35;7.80;;;7.00;;
2299;SDS011;1158;48.750;9.078;2022-07-29T03:44:03;11.33;;;7.50;;
2299;SDS011;1158;48.750;9.078;2022-07-29T03:46:31;9.70;;;7.43;;
2299;SDS011;1158;48.750;9.078;2022-07-29T03:49:02;7.70;;;6.70;;
2299;SDS011;1158;48.750;9.078;2022-07-29T03:51:33;7.20;;;6.50;;
2299;SDS011;1158;48.750;9.078;2022-07-29T03:54:00;9.23;;;8.30;;
2299;SDS011;1158;48.750;9.078;2022-07-29T03:56:28;7.20;;;6.50;;
2299;SDS011;1158;48.750;9.078;2022-07-29T03:58:58;8.10;;;7.30;;
2299;SDS011;1158;48.750;9.078;2022-07-29T04:01:26;8.43;;;7.50;;
2299;SDS011;1158;48.750;9.078;2022-07-29T04:03:54;8.83;;;7.67;;
2299;SDS011;1158;48.750;9.078;2022-07-29T04:06:21;9.57;;;8.53;;
2299;SDS011;1158;48.750;9.078;2022-07-29T04:08:48;9.90;;;8.33;;
2299;SDS011;1158;48.750;9.078;2022-07-29T04:11:14;7.80;;;7.00;;
2299;SDS011;1158;48.750;9.078;2022-07-29T04:13:42;9.73;;;6.70;;
2299;SDS011;1158;48.750;9.078;2022-07-29T04:16:09;9.60;;;8.03;;
2299;SDS011;1158;48.750;9.078;2022-07-29T04:18:36;8.40;;;7.37;;
2299;SDS011;1158;48.750;9.078;2022-07-29T04:21:02;9.53;;;8.53;;
2299;SDS011;1158;48.750;9.078;2022-07-29T04:23:29;10.70;;;7.97;;
2299;SDS011;1158;48.750;9.078;2022-07-29T04:25:57;9.20;;;7.93;;
2299;SDS011;1158;48.750;9.078;2022-07-29T04:28:25;8.17;;;7.27;;
2299;SDS011;1158;48.750;9.078;2022-07-29T04:30:53;11.00;;;7.97;;
2299;SDS011;1158;48.750;9.078;2022-07-29T04:33:19;7.70;;;6.90;;
2299;SDS011;1158;48.750;9.078;2022-07-29T04:35:46;8.30;;;7.50;;
2299;SDS011;1158;48.750;9.078;2022-07-29T04:38:13;8.87;;;7.67;;
2299;SDS011;1158;48.750;9.078;2022-07-29T04:40:39;8.90;;;7.50;;
2299;SDS011;1158;48.750;9.078;2022-07-29T04:43:06;9.20;;;7.80;;
2299;SDS011;1158;48.750;9.078;2022-07-29T04:45:33;10.70;;;8.00;;
2299;SDS011;1158;48.750;9.078;2022-07-29T04:48:01;7.07;;;6.37;;
2299;SDS011;1158;48.750;9.078;2022-07-29T04:50:27;8.00;;;7.17;;
2299;SDS011;1158;48.750;9.078;2022-07-29T04:52:54;8.77;;;7.00;;
2299;SDS011;1158;48.750;9.078;2022-07-29T04:55:21;7.00;;;6.00;;
2299;SDS011;1158;48.750;9.078;2022-07-29T04:57:47;8.47;;;6.50;;
2299;SDS011;1158;48.750;9.078;2022-07-29T05:00:14;7.00;;;6.30;;
2299;SDS011;1158;48.750;9.078;2022-07-29T05:02:41;12.37;;;6.53;;
2299;SDS011;1158;48.750;9.078;2022-07-29T05:05:09;7.60;;;6.07;;
2299;SDS011;1158;48.750;9.078;2022-07-29T05:07:36;6.80;;;5.80;;
2299;SDS011;1158;48.750;9.078;2022-07-29T05:10:03;6.80;;;5.50;;
2299;SDS011;1158;48.750;9.078;2022-07-29T05:12:30;6.17;;;5.57;;
2299;SDS011;1158;48.750;9.078;2022-07-29T05:14:57;5.57;;;5.03;;
2299;SDS011;1158;48.750;9.078;2022-07-29T05:17:23;5.23;;;4.70;;
2299;SDS011;1158;48.750;9.078;2022-07-29T05:19:50;7.93;;;4.70;;
2299;SDS011;1158;48.750;9.078;2022-07-29T05:22:18;5.87;;;4.67;;
2299;SDS011;1158;48.750;9.078;2022-07-29T05:24:45;5.00;;;4.50;;
2299;SDS011;1158;48.750;9.078;2022-07-29T05:27:12;6.57;;;4.67;;
2299;SDS011;1158;48.750;9.078;2022-07-29T05:29:39;4.40;;;4.00;;
2299;SDS011;1158;48.750;9.078;2022-07-29T05:32:06;6.60;;;4.67;;
2299;SDS011;1158;48.750;9.078;2022-07-29T05:34:33;5.63;;;4.80;;
2299;SDS011;1158;48.750;9.078;2022-07-29T05:37:00;5.57;;;4.70;;
2299;SDS011;1158;48.750;9.078;2022-07-29T05:39:28;6.03;;;4.80;;
2299;SDS011;1158;48.750;9.078;2022-07-29T05:41:55;6.53;;;4.73;;
2299;SDS011;1158;48.750;9.078;2022-07-29T05:44:21;5.57;;;4.70;;
2299;SDS011;1158;48.750;9.078;2022-07-29T05:46:48;5.67;;;4.30;;
2299;SDS011;1158;48.750;9.078;2022-07-29T05:49:15;4.97;;;4.20;;
2299;SDS011;1158;48.750;9.078;2022-07-29T05:51:41;6.97;;;4.60;;
2299;SDS011;1158;48.750;9.078;2022-07-29T05:54:08;4.57;;;4.17;;
2299;SDS011;1158;48.750;9.078;2022-07-29T05:56:36;4.90;;;4.33;;
2299;SDS011;1158;48.750;9.078;2022-07-29T05:59:03;6.40;;;4.27;;
2299;SDS011;1158;48.750;9.078;2022-07-29T06:01:30;5.70;;;4.97;;
2299;SDS011;1158;48.750;9.078;2022-07-29T06:03:57;4.17;;;3.77;;
2299;SDS011;1158;48.750;9.078;2022-07-29T06:06:24;4.50;;;4.10;;
2299;SDS011;1158;48.750;9.078;2022-07-29T06:08:50;5.40;;;4.10;;
2299;SDS011;1158;48.750;9.078;2022-07-29T06:11:17;4.40;;;3.83;;
2299;SDS011;1158;48.750;9.078;2022-07-29T06:13:45;8.50;;;3.93;;
2299;SDS011;1158;48.750;9.078;2022-07-29T06:16:12;4.40;;;3.60;;
2299;SDS011;1158;48.750;9.078;2022-07-29T06:18:48;6.20;;;3.70;;
2299;SDS011;1158;48.750;9.078;2022-07-29T06:21:15;4.87;;;3.93;;
2299;SDS011;1158;48.750;9.078;2022-07-29T06:23:41;5.90;;;3.83;;
2299;SDS011;1158;48.750;9.078;2022-07-29T06:26:08;5.17;;;3.43;;
2299;SDS011;1158;48.750;9.078;2022-07-29T06:28:35;4.77;;;3.40;;
2299;SDS011;1158;48.750;9.078;2022-07-29T06:31:03;5.10;;;4.33;;
2299;SDS011;1158;48.750;9.078;2022-07-29T06:33:31;5.63;;;4.67;;
2299;SDS011;1158;48.750;9.078;2022-07-29T06:35:58;5.00;;;4.20;;
2299;SDS011;1158;48.750;9.078;2022-07-29T06:38:25;5.13;;;4.07;;
2299;SDS011;1158;48.750;9.078;2022-07-29T06:40:51;5.50;;;4.27;;
2299;SDS011;1158;48.750;9.078;2022-07-29T06:43:27;6.40;;;3.80;;
2299;SDS011;1158;48.750;9.078;2022-07-29T06:45:57;6.70;;;3.83;;
2299;SDS011;1158;48.750;9.078;2022-07-29T06:48:25;4.73;;;3.83;;
2299;SDS011;1158;48.750;9.078;2022-07-29T06:50:53;4.70;;;3.97;;
2299;SDS011;1158;48.750;9.078;2022-07-29T06:53:19;6.40;;;4.50;;
2299;SDS011;1158;48.750;9.078;2022-07-29T06:55:46;5.77;;;4.27;;
2299;SDS011;1158;48.750;9.078;2022-07-29T06:58:13;5.43;;;3.60;;
2299;SDS011;1158;48.750;9.078;2022-07-29T07:00:41;4.23;;;3.83;;
2299;SDS011;1158;48.750;9.078;2022-07-29T07:03:07;5.00;;;4.10;;
2299;SDS011;1158;48.750;9.078;2022-07-29T07:05:35;8.30;;;4.10;;
2299;SDS011;1158;48.750;9.078;2022-07-29T07:08:02;4.80;;;4.33;;
2299;SDS011;1158;48.750;9.078;2022-07-29T07:10:29;7.27;;;4.83;;
2299;SDS011;1158;48.750;9.078;2022-07-29T07:12:56;6.77;;;4.17;;
2299;SDS011;1158;48.750;9.078;2022-07-29T07:15:23;8.20;;;4.37;;
2299;SDS011;1158;48.750;9.078;2022-07-29T07:17:49;6.73;;;4.20;;
2299;SDS011;1158;48.750;9.078;2022-07-29T07:20:16;7.60;;;4.30;;
2299;SDS011;1158;48.750;9.078;2022-07-29T07:22:45;6.23;;;4.93;;
2299;SDS011;1158;48.750;9.078;2022-07-29T07:25:12;6.20;;;4.60;;
2299;SDS011;1158;48.750;9.078;2022-07-29T07:27:39;6.37;;;4.60;;
2299;SDS011;1158;48.750;9.078;2022-07-29T07:30:06;6.90;;;3.80;;
2299;SDS011;1158;48.750;9.078;2022-07-29T07:32:33;4.63;;;3.50;;
2299;SDS011;1158;48.750;9.078;2022-07-29T07:35:01;5.57;;;3.80;;
2299;SDS011;1158;48.750;9.078;2022-07-29T07:37:29;5.33;;;4.17;;
2299;SDS011;1158;48.750;9.078;2022-07-29T07:39:57;4.83;;;4.27;;
2299;SDS011;1158;48.750;9.078;2022-07-29T07:42:24;5.67;;;4.67;;
2299;SDS011;1158;48.750;9.078;2022-07-29T07:44:50;4.03;;;3.63;;
2299;SDS011;1158;48.750;9.078;2022-07-29T07:47:17;5.13;;;3.67;;
2299;SDS011;1158;48.750;9.078;2022-07-29T07:49:44;4.30;;;3.90;;
2299;SDS011;1158;48.750;9.078;2022-07-29T07:52:11;4.30;;;3.80;;
2299;SDS011;1158;48.750;9.078;2022-07-29T07:54:38;5.00;;;4.10;;
2299;SDS011;1158;48.750;9.078;2022-07-29T07:57:06;5.53;;;3.77;;
2299;SDS011;1158;48.750;9.078;2022-07-29T07:59:33;4.43;;;3.73;;
2299;SDS011;1158;48.750;9.078;2022-07-29T08:01:59;5.40;;;4.17;;
2299;SDS011;1158;48.750;9.078;2022-07-29T08:04:26;4.50;;;3.80;;
2299;SDS011;1158;48.750;9.078;2022-07-29T08:06:53;4.13;;;3.73;;
2299;SDS011;1158;48.750;9.078;2022-07-29T08:09:20;4.83;;;4.00;;
2299;SDS011;1158;48.750;9.078;2022-07-29T08:11:47;4.40;;;4.00;;
2299;SDS011;1158;48.750;9.078;2022-07-29T08:14:15;5.60;;;4.57;;
2299;SDS011;1158;48.750;9.078;2022-07-29T08:16:42;5.40;;;3.90;;
2299;SDS011;1158;48.750;9.078;2022-07-29T08:19:09;4.73;;;4.33;;
2299;SDS011;1158;48.750;9.078;2022-07-29T08:21:35;5.70;;;4.00;;
2299;SDS011;1158;48.750;9.078;2022-07-29T08:24:03;5.27;;;4.37;;
2299;SDS011;1158;48.750;9.078;2022-07-29T08:26:48;5.90;;;3.90;;
2299;SDS011;1158;48.750;9.078;2022-07-29T08:29:16;6.00;;;3.93;;
2299;SDS011;1158;48.750;9.078;2022-07-29T08:31:43;9.30;;;4.10;;
2299;SDS011;1158;48.750;9.078;2022-07-29T08:34:10;5.03;;;4.10;;
2299;SDS011;1158;48.750;9.078;2022-07-29T08:36:37;7.70;;;4.40;;
2299;SDS011;1158;48.750;9.078;2022-07-29T08:39:06;5.80;;;4.50;;
2299;SDS011;1158;48.750;9.078;2022-07-29T08:41:32;5.37;;;4.10;;
2299;SDS011;1158;48.750;9.078;2022-07-29T08:43:59;5.03;;;4.10;;
2299;SDS011;1158;48.750;9.078;2022-07-29T08:46:27;9.03;;;4.43;;
2299;SDS011;1158;48.750;9.078;2022-07-29T08:48:54;7.30;;;4.60;;
2299;SDS011;1158;48.750;9.078;2022-07-29T08:51:21;10.93;;;5.00;;
2299;SDS011;1158;48.750;9.078;2022-07-29T08:53:49;5.50;;;4.63;;
2299;SDS011;1158;48.750;9.078;2022-07-29T08:56:16;7.73;;;4.60;;
2299;SDS011;1158;48.750;9.078;2022-07-29T08:58:44;6.07;;;4.90;;
2299;SDS011;1158;48.750;9.078;2022-07-29T09:01:13;6.80;;;4.07;;
2299;SDS011;1158;48.750;9.078;2022-07-29T09:03:55;6.13;;;4.10;;
2299;SDS011;1158;48.750;9.078;2022-07-29T09:06:22;6.80;;;4.17;;
2299;SDS011;1158;48.750;9.078;2022-07-29T09:08:52;4.60;;;4.20;;
2299;SDS011;1158;48.750;9.078;2022-07-29T09:11:20;6.80;;;4.97;;
2299;SDS011;1158;48.750;9.078;2022-07-29T09:13:47;6.00;;;4.60;;
2299;SDS011;1158;48.750;9.078;2022-07-29T09:16:14;6.33;;;4.40;;
2299;SDS011;1158;48.750;9.078;2022-07-29T09:18:43;8.60;;;4.40;;
2299;SDS011;1158;48.750;9.078;2022-07-29T09:21:11;8.77;;;4.20;;
2299;SDS011;1158;48.750;9.078;2022-07-29T09:24:04;9.90;;;4.40;;
2299;SDS011;1158;48.750;9.078;2022-07-29T09:26:34;7.67;;;3.93;;
2299;SDS011;1158;48.750;9.078;2022-07-29T09:29:07;4.07;;;3.50;;
2299;SDS011;1158;48.750;9.078;2022-07-29T09:31:36;6.83;;;4.93;;
2299;SDS011;1158;48.750;9.078;2022-07-29T09:34:05;6.67;;;4.20;;
2299;SDS011;1158;48.750;9.078;2022-07-29T09:36:38;5.77;;;4.30;;
2299;SDS011;1158;48.750;9.078;2022-07-29T09:39:06;8.70;;;4.30;;
2299;SDS011;1158;48.750;9.078;2022-07-29T09:41:43;9.07;;;4.93;;
2299;SDS011;1158;48.750;9.078;2022-07-29T09:44:14;7.60;;;4.57;;
2299;SDS011;1158;48.750;9.078;2022-07-29T09:46:51;6.87;;;4.67;;
2299;SDS011;1158;48.750;9.078;2022-07-29T09:49:20;5.13;;;4.30;;
2299;SDS011;1158;48.750;9.078;2022-07-29T09:51:47;6.33;;;4.50;;
2299;SDS011;1158;48.750;9.078;2022-07-29T09:54:25;9.47;;;4.73;;
2299;SDS011;1158;48.750;9.078;2022-07-29T09:56:53;6.93;;;5.03;;
2299;SDS011;1158;48.750;9.078;2022-07-29T09:59:21;7.40;;;4.90;;
2299;SDS011;1158;48.750;9.078;2022-07-29T10:01:51;4.90;;;4.30;;
2299;SDS011;1158;48.750;9.078;2022-07-29T10:04:18;6.10;;;4.53;;
2299;SDS011;1158;48.750;9.078;2022-07-29T10:06:56;7.63;;;4.40;;
2299;SDS011;1158;48.750;9.078;2022-07-29T10:09:24;5.03;;;4.53;;
2299;SDS011;1158;48.750;9.078;2022-07-29T10:12:07;9.53;;;5.07;;
2299;SDS011;1158;48.750;9.078;2022-07-29T10:14:36;9.17;;;5.60;;
2299;SDS011;1158;48.750;9.078;2022-07-29T10:17:03;9.40;;;4.40;;
2299;SDS011;1158;48.750;9.078;2022-07-29T10:19:33;8.87;;;5.00;;
2299;SDS011;1158;48.750;9.078;2022-07-29T10:22:02;7.30;;;5.20;;
2299;SDS011;1158;48.750;9.078;2022-07-29T10:24:30;6.70;;;4.93;;
2299;SDS011;1158;48.750;9.078;2022-07-29T10:26:58;5.83;;;5.17;;
2299;SDS011;1158;48.750;9.078;2022-07-29T10:29:26;8.00;;;6.20;;
2299;SDS011;1158;48.750;9.078;2022-07-29T10:31:59;7.00;;;5.53;;
2299;SDS011;1158;48.750;9.078;2022-07-29T10:34:48;9.70;;;6.33;;
2299;SDS011;1158;48.750;9.078;2022-07-29T10:37:33;9.40;;;6.33;;
2299;SDS011;1158;48.750;9.078;2022-07-29T10:40:11;11.80;;;5.80;;
2299;SDS011;1158;48.750;9.078;2022-07-29T10:43:04;7.10;;;5.57;;
2299;SDS011;1158;48.750;9.078;2022-07-29T10:45:42;7.40;;;6.57;;
2299;SDS011;1158;48.750;9.078;2022-07-29T10:48:10;9.57;;;7.40;;
2299;SDS011;1158;48.750;9.078;2022-07-29T10:50:52;10.50;;;7.50;;
2299;SDS011;1158;48.750;9.078;2022-07-29T10:53:20;10.47;;;8.33;;
2299;SDS011;1158;48.750;9.078;2022-07-29T10:55:48;12.63;;;9.10;;
2299;SDS011;1158;48.750;9.078;2022-07-29T10:58:17;15.03;;;10.17;;
2299;SDS011;1158;48.750;9.078;2022-07-29T11:00:46;14.63;;;10.13;;
2299;SDS011;1158;48.750;9.078;2022-07-29T11:03:42;19.23;;;11.70;;
2299;SDS011;1158;48.750;9.078;2022-07-29T11:06:12;18.40;;;11.87;;
2299;SDS011;1158;48.750;9.078;2022-07-29T11:08:39;17.37;;;11.93;;
2299;SDS011;1158;48.750;9.078;2022-07-29T11:14:05;20.73;;;13.67;;
2299;SDS011;1158;48.750;9.078;2022-07-29T11:19:25;17.50;;;13.63;;
2299;SDS011;1158;48.750;9.078;2022-07-29T11:21:54;15.63;;;13.80;;
2299;SDS011;1158;48.750;9.078;2022-07-29T11:24:21;16.80;;;13.83;;
2299;SDS011;1158;48.750;9.078;2022-07-29T11:29:48;21.53;;;14.30;;
2299;SDS011;1158;48.750;9.078;2022-07-29T11:32:16;21.40;;;14.00;;
2299;SDS011;1158;48.750;9.078;2022-07-29T11:34:44;18.87;;;14.23;;
2299;SDS011;1158;48.750;9.078;2022-07-29T11:37:17;16.07;;;13.97;;
2299;SDS011;1158;48.750;9.078;2022-07-29T11:39:46;15.43;;;13.63;;
2299;SDS011;1158;48.750;9.078;2022-07-29T11:42:41;14.87;;;13.37;;
2299;SDS011;1158;48.750;9.078;2022-07-29T11:45:18;16.87;;;14.33;;
2299;SDS011;1158;48.750;9.078;2022-07-29T11:47:57;18.17;;;12.47;;
2299;SDS011;1158;48.750;9.078;2022-07-29T11:50:34;13.50;;;11.70;;
2299;SDS011;1158;48.750;9.078;2022-07-29T11:53:10;14.47;;;12.60;;
2299;SDS011;1158;48.750;9.078;2022-07-29T11:55:38;14.50;;;12.70;;
2299;SDS011;1158;48.750;9.078;2022-07-29T11:58:05;14.27;;;12.67;;
2299;SDS011;1158;48.750;9.078;2022-07-29T12:00:32;14.10;;;12.60;;
2299;SDS011;1158;48.750;9.078;2022-07-29T12:03:01;16.77;;;11.90;;
2299;SDS011;1158;48.750;9.078;2022-07-29T12:05:33;13.80;;;12.30;;
2299;SDS011;1158;48.750;9.078;2022-07-29T12:08:10;11.10;;;9.87;;
2299;SDS011;1158;48.750;9.078;2022-07-29T12:10:38;13.50;;;9.67;;
2299;SDS011;1158;48.750;9.078;2022-07-29T12:13:06;13.23;;;10.23;;
2299;SDS011;1158;48.750;9.078;2022-07-29T12:15:34;14.27;;;9.57;;
2299;SDS011;1158;48.750;9.078;2022-07-29T12:18:09;11.33;;;8.83;;
2299;SDS011;1158;48.750;9.078;2022-07-29T12:20:36;12.90;;;9.13;;
2299;SDS011;1158;48.750;9.078;2022-07-29T12:23:04;11.87;;;9.83;;
2299;SDS011;1158;48.750;9.078;2022-07-29T12:25:34;12.10;;;8.93;;
2299;SDS011;1158;48.750;9.078;2022-07-29T12:28:03;14.60;;;9.07;;
2299;SDS011;1158;48.750;9.078;2022-07-29T12:30:35;14.50;;;9.07;;
2299;SDS011;1158;48.750;9.078;2022-07-29T12:33:13;8.90;;;8.00;;
2299;SDS011;1158;48.750;9.078;2022-07-29T12:35:51;9.80;;;8.40;;
2299;SDS011;1158;48.750;9.078;2022-07-29T12:38:20;10.50;;;9.40;;
2299;SDS011;1158;48.750;9.078;2022-07-29T12:40:49;11.70;;;9.23;;
2299;SDS011;1158;48.750;9.078;2022-07-29T12:43:17;15.50;;;9.93;;
2299;SDS011;1158;48.750;9.078;2022-07-29T12:45:47;11.37;;;10.20;;
2299;SDS011;1158;48.750;9.078;2022-07-29T12:48:14;14.60;;;9.90;;
2299;SDS011;1158;48.750;9.078;2022-07-29T12:50:55;10.63;;;9.53;;
2299;SDS011;1158;48.750;9.078;2022-07-29T12:53:23;10.53;;;9.40;;
2299;SDS011;1158;48.750;9.078;2022-07-29T12:55:52;10.00;;;9.00;;
2299;SDS011;1158;48.750;9.078;2022-07-29T12:58:27;14.23;;;9.40;;
2299;SDS011;1158;48.750;9.078;2022-07-29T13:01:05;12.40;;;9.23;;
2299;SDS011;1158;48.750;9.078;2022-07-29T13:03:47;9.83;;;8.40;;
2299;SDS011;1158;48.750;9.078;2022-07-29T13:06:28;12.43;;;8.87;;
2299;SDS011;1158;48.750;9.078;2022-07-29T13:08:58;11.10;;;9.77;;
2299;SDS011;1158;48.750;9.078;2022-07-29T13:11:31;10.17;;;9.23;;
2299;SDS011;1158;48.750;9.078;2022-07-29T13:13:59;13.30;;;9.10;;
2299;SDS011;1158;48.750;9.078;2022-07-29T13:16:26;14.23;;;8.80;;
2299;SDS011;1158;48.750;9.078;2022-07-29T13:19:03;11.67;;;7.73;;
2299;SDS011;1158;48.750;9.078;2022-07-29T13:21:34;10.40;;;9.03;;
2299;SDS011;1158;48.750;9.078;2022-07-29T13:24:02;9.80;;;8.77;;
2299;SDS011;1158;48.750;9.078;2022-07-29T13:26:32;11.40;;;9.53;;
2299;SDS011;1158;48.750;9.078;2022-07-29T13:28:59;12.73;;;10.20;;
2299;SDS011;1158;48.750;9.078;2022-07-29T13:31:25;13.23;;;10.50;;
2299;SDS011;1158;48.750;9.078;2022-07-29T13:33:52;12.53;;;11.10;;
2299;SDS011;1158;48.750;9.078;2022-07-29T13:36:19;13.10;;;11.90;;
2299;SDS011;1158;48.750;9.078;2022-07-29T13:38:46;13.73;;;12.27;;
2299;SDS011;1158;48.750;9.078;2022-07-29T13:41:12;12.87;;;11.67;;
2299;SDS011;1158;48.750;9.078;2022-07-29T13:43:40;15.00;;;11.20;;
2299;SDS011;1158;48.750;9.078;2022-07-29T13:46:07;11.60;;;10.40;;
2299;SDS011;1158;48.750;9.078;2022-07-29T13:48:34;14.50;;;10.10;;
2299;SDS011;1158;48.750;9.078;2022-07-29T13:51:00;10.33;;;9.00;;
2299;SDS011;1158;48.750;9.078;2022-07-29T13:53:27;10.13;;;8.90;;
2299;SDS011;1158;48.750;9.078;2022-07-29T13:55:54;9.83;;;7.73;;
2299;SDS011;1158;48.750;9.078;2022-07-29T13:58:21;11.00;;;8.90;;
2299;SDS011;1158;48.750;9.078;2022-07-29T14:00:49;11.63;;;8.43;;
2299;SDS011;1158;48.750;9.078;2022-07-29T14:03:16;9.60;;;8.60;;
2299;SDS011;1158;48.750;9.078;2022-07-29T14:05:42;12.23;;;8.40;;
2299;SDS011;1158;48.750;9.078;2022-07-29T14:08:09;13.40;;;8.27;;
2299;SDS011;1158;48.750;9.078;2022-07-29T14:10:36;13.93;;;8.70;;
2299;SDS011;1158;48.750;9.078;2022-07-29T14:13:03;13.00;;;8.50;;
2299;SDS011;1158;48.750;9.078;2022-07-29T14:15:29;9.73;;;8.73;;
2299;SDS011;1158;48.750;9.078;2022-07-29T14:17:57;12.37;;;8.30;;
2299;SDS011;1158;48.750;9.078;2022-07-29T14:20:24;9.47;;;8.10;;
2299;SDS011;1158;48.750;9.078;2022-07-29T14:22:51;8.87;;;7.97;;
2299;SDS011;1158;48.750;9.078;2022-07-29T14:25:17;8.97;;;7.63;;
2299;SDS011;1158;48.750;9.078;2022-07-29T14:27:44;8.77;;;7.53;;
2299;SDS011;1158;48.750;9.078;2022-07-29T14:30:11;12.63;;;8.67;;
2299;SDS011;1158;48.750;9.078;2022-07-29T14:32:38;11.87;;;8.37;;
2299;SDS011;1158;48.750;9.078;2022-07-29T14:35:06;10.93;;;8.27;;
2299;SDS011;1158;48.750;9.078;2022-07-29T14:37:34;9.80;;;7.87;;
2299;SDS011;1158;48.750;9.078;2022-07-29T14:40:01;12.50;;;8.37;;
2299;SDS011;1158;48.750;9.078;2022-07-29T14:42:29;11.77;;;8.70;;
2299;SDS011;1158;48.750;9.078;2022-07-29T14:44:56;13.67;;;8.23;;
2299;SDS011;1158;48.750;9.078;2022-07-29T14:47:23;8.83;;;7.93;;
2299;SDS011;1158;48.750;9.078;2022-07-29T14:49:49;10.07;;;8.93;;
2299;SDS011;1158;48.750;9.078;2022-07-29T14:52:17;11.07;;;8.80;;
2299;SDS011;1158;48.750;9.078;2022-07-29T14:54:44;10.33;;;7.97;;
2299;SDS011;1158;48.750;9.078;2022-07-29T14:57:11;9.60;;;8.10;;
2299;SDS011;1158;48.750;9.078;2022-07-29T14:59:38;13.57;;;8.73;;
2299;SDS011;1158;48.750;9.078;2022-07-29T15:02:04;9.90;;;7.80;;
2299;SDS011;1158;48.750;9.078;2022-07-29T15:04:31;9.53;;;8.30;;
2299;SDS011;1158;48.750;9.078;2022-07-29T15:06:58;11.70;;;8.40;;
2299;SDS011;1158;48.750;9.078;2022-07-29T15:09:26;9.80;;;7.70;;
2299;SDS011;1158;48.750;9.078;2022-07-29T15:11:52;9.93;;;7.10;;
2299;SDS011;1158;48.750;9.078;2022-07-29T15:14:19;9.63;;;7.70;;
2299;SDS011;1158;48.750;9.078;2022-07-29T15:16:46;8.63;;;7.47;;
2299;SDS011;1158;48.750;9.078;2022-07-29T15:19:12;13.20;;;9.63;;
2299;SDS011;1158;48.750;9.078;2022-07-29T15:21:39;13.90;;;9.60;;
2299;SDS011;1158;48.750;9.078;2022-07-29T15:24:06;8.73;;;7.83;;
2299;SDS011;1158;48.750;9.078;2022-07-29T15:26:34;10.93;;;9.03;;
2299;SDS011;1158;48.750;9.078;2022-07-29T15:29:01;8.80;;;7.90;;
2299;SDS011;1158;48.750;9.078;2022-07-29T15:31:27;8.37;;;7.57;;
2299;SDS011;1158;48.750;9.078;2022-07-29T15:33:54;8.40;;;7.60;;
2299;SDS011;1158;48.750;9.078;2022-07-29T15:36:21;10.80;;;8.80;;